DERIC EDGR-EDDC
Flight info
| Callsign | DERIC |
|---|---|
| Flight time | 0h 36m |
| Altitude | 35000 |
| Route | SOGMI T201 TAMEB DCT OSKAN OSKAN4A/22 |
| Aircraft | C750/M-SBDE3FGHRWXY/S |
Departure
| Time | 2026-04-25 15:08 |
|---|---|
| Airport | Gießen-Reiskirchen Airfield (EDGR) |
Arrival
| Time | 2026-04-25 15:45 |
|---|---|
| Airport | Dresden Airport (EDDC) |
| Time | Latitude | Longitude | Altitude | Speed | Heading |
|---|---|---|---|---|---|
| 2026-04-25 15:00 | 50.56758 | 8.86969 | 706 ft | 0 kts | 151° |
| 2026-04-25 15:04 | 50.56756 | 8.86970 | 713 ft | 1 kts | 151° |
| 2026-04-25 15:04 | 50.56751 | 8.86975 | 714 ft | 3 kts | 152° |
| 2026-04-25 15:04 | 50.56653 | 8.86885 | 715 ft | 22 kts | 217° |
| 2026-04-25 15:04 | 50.56568 | 8.86783 | 711 ft | 0 kts | 217° |
| 2026-04-25 15:06 | 50.56480 | 8.86678 | 706 ft | 27 kts | 217° |
| 2026-04-25 15:06 | 50.56377 | 8.86552 | 701 ft | 9 kts | 218° |
| 2026-04-25 15:06 | 50.56348 | 8.86535 | 700 ft | 0 kts | 126° |
| 2026-04-25 15:06 | 50.56357 | 8.86541 | 700 ft | 2 kts | 342° |
| 2026-04-25 15:07 | 50.56359 | 8.86539 | 699 ft | 0 kts | 336° |
| 2026-04-25 15:07 | 50.56358 | 8.86541 | 700 ft | 2 kts | 350° |
| 2026-04-25 15:07 | 50.56332 | 8.86539 | 698 ft | 0 kts | 5° |
| 2026-04-25 15:07 | 50.56333 | 8.86541 | 698 ft | 2 kts | 25° |
| 2026-04-25 15:08 | 50.56573 | 8.86829 | 710 ft | 95 kts | 39° |
| 2026-04-25 15:08 | 50.57233 | 8.87676 | 1060 ft | 127 kts | 33° |
| 2026-04-25 15:08 | 50.57895 | 8.88521 | 2004 ft | 118 kts | 35° |
| 2026-04-25 15:08 | 50.58590 | 8.89439 | 2463 ft | 141 kts | 34° |
| 2026-04-25 15:09 | 50.59333 | 8.90467 | 3204 ft | 146 kts | 37° |
| 2026-04-25 15:09 | 50.60097 | 8.91773 | 3383 ft | 173 kts | 56° |
| 2026-04-25 15:09 | 50.61370 | 8.95273 | 3649 ft | 209 kts | 57° |
| 2026-04-25 15:10 | 50.62061 | 8.97376 | 4426 ft | 173 kts | 60° |
| 2026-04-25 15:10 | 50.62540 | 8.98938 | 5668 ft | 170 kts | 59° |
| 2026-04-25 15:10 | 50.63731 | 9.02546 | 6655 ft | 199 kts | 50° |
| 2026-04-25 15:11 | 50.64594 | 9.04269 | 6857 ft | 209 kts | 46° |
| 2026-04-25 15:11 | 50.65525 | 9.06201 | 7148 ft | 235 kts | 50° |
| 2026-04-25 15:11 | 50.66514 | 9.08487 | 7415 ft | 269 kts | 52° |
| 2026-04-25 15:12 | 50.68801 | 9.13821 | 8178 ft | 306 kts | 52° |
| 2026-04-25 15:12 | 50.70012 | 9.16601 | 8595 ft | 310 kts | 52° |
| 2026-04-25 15:12 | 50.71226 | 9.19420 | 9544 ft | 311 kts | 53° |
| 2026-04-25 15:12 | 50.71597 | 9.20418 | 9861 ft | 314 kts | 58° |
| 2026-04-25 15:13 | 50.72558 | 9.26078 | 11115 ft | 326 kts | 75° |
| 2026-04-25 15:13 | 50.73632 | 9.33133 | 12670 ft | 335 kts | 73° |
| 2026-04-25 15:13 | 50.74185 | 9.36728 | 13430 ft | 340 kts | 73° |
| 2026-04-25 15:14 | 50.74727 | 9.40391 | 14155 ft | 345 kts | 74° |
| 2026-04-25 15:14 | 50.75277 | 9.44096 | 14854 ft | 348 kts | 74° |
| 2026-04-25 15:14 | 50.75841 | 9.47839 | 15540 ft | 352 kts | 73° |
| 2026-04-25 15:14 | 50.76410 | 9.51623 | 16262 ft | 356 kts | 73° |
| 2026-04-25 15:15 | 50.76979 | 9.55444 | 17019 ft | 359 kts | 73° |
| 2026-04-25 15:15 | 50.77551 | 9.59304 | 17772 ft | 363 kts | 73° |
| 2026-04-25 15:15 | 50.78131 | 9.63208 | 18518 ft | 367 kts | 73° |
| 2026-04-25 15:15 | 50.78715 | 9.67143 | 19198 ft | 370 kts | 73° |
| 2026-04-25 15:16 | 50.79303 | 9.71126 | 19890 ft | 374 kts | 73° |
| 2026-04-25 15:16 | 50.79896 | 9.75153 | 20587 ft | 378 kts | 73° |
| 2026-04-25 15:16 | 50.81103 | 9.83343 | 21971 ft | 387 kts | 73° |
| 2026-04-25 15:17 | 50.82328 | 9.91717 | 23348 ft | 395 kts | 73° |
| 2026-04-25 15:17 | 50.82949 | 9.95971 | 23960 ft | 399 kts | 73° |
| 2026-04-25 15:17 | 50.83573 | 10.00266 | 24535 ft | 402 kts | 73° |
| 2026-04-25 15:18 | 50.84192 | 10.04539 | 25098 ft | 406 kts | 73° |
| 2026-04-25 15:18 | 50.84310 | 10.13661 | 26169 ft | 420 kts | 92° |
| 2026-04-25 15:18 | 50.84031 | 10.18290 | 26742 ft | 424 kts | 92° |
| 2026-04-25 15:19 | 50.83763 | 10.22944 | 27284 ft | 428 kts | 92° |
| 2026-04-25 15:19 | 50.83678 | 10.24474 | 27463 ft | 429 kts | 92° |
| 2026-04-25 15:19 | 50.83229 | 10.32340 | 28388 ft | 436 kts | 92° |
| 2026-04-25 15:19 | 50.82944 | 10.37133 | 28955 ft | 439 kts | 92° |
| 2026-04-25 15:20 | 50.82657 | 10.41959 | 29565 ft | 442 kts | 91° |
| 2026-04-25 15:20 | 50.82370 | 10.46826 | 30087 ft | 447 kts | 91° |
| 2026-04-25 15:20 | 50.82078 | 10.51735 | 30567 ft | 450 kts | 91° |
| 2026-04-25 15:20 | 50.81779 | 10.56680 | 31041 ft | 453 kts | 92° |
| 2026-04-25 15:21 | 50.81476 | 10.61656 | 31501 ft | 457 kts | 92° |
| 2026-04-25 15:21 | 50.81179 | 10.66674 | 31958 ft | 459 kts | 91° |
| 2026-04-25 15:21 | 50.81231 | 10.71714 | 32370 ft | 458 kts | 80° |
| 2026-04-25 15:21 | 50.81785 | 10.76654 | 32839 ft | 456 kts | 71° |
| 2026-04-25 15:22 | 50.82795 | 10.81388 | 33281 ft | 455 kts | 64° |
| 2026-04-25 15:22 | 50.83933 | 10.86079 | 33713 ft | 459 kts | 64° |
| 2026-04-25 15:22 | 50.85065 | 10.90828 | 34105 ft | 464 kts | 64° |
| 2026-04-25 15:22 | 50.86201 | 10.95622 | 34486 ft | 467 kts | 64° |
| 2026-04-25 15:23 | 50.87353 | 11.00448 | 34860 ft | 469 kts | 64° |
| 2026-04-25 15:23 | 50.88513 | 11.05299 | 35042 ft | 477 kts | 64° |
| 2026-04-25 15:23 | 50.89696 | 11.10272 | 35045 ft | 489 kts | 64° |
| 2026-04-25 15:23 | 50.90900 | 11.15373 | 35051 ft | 500 kts | 65° |
| 2026-04-25 15:24 | 50.93381 | 11.25904 | 35039 ft | 520 kts | 65° |
| 2026-04-25 15:24 | 50.95092 | 11.33175 | 35036 ft | 532 kts | 65° |
| 2026-04-25 15:25 | 50.98524 | 11.47881 | 35025 ft | 540 kts | 65° |
| 2026-04-25 15:25 | 51.01136 | 11.59120 | 35022 ft | 546 kts | 65° |
| 2026-04-25 15:26 | 51.02448 | 11.64799 | 34601 ft | 551 kts | 65° |
| 2026-04-25 15:26 | 51.03750 | 11.70455 | 33878 ft | 540 kts | 65° |
| 2026-04-25 15:26 | 51.05025 | 11.76011 | 33154 ft | 529 kts | 65° |
| 2026-04-25 15:26 | 51.06280 | 11.81468 | 32461 ft | 523 kts | 65° |
| 2026-04-25 15:27 | 51.07522 | 11.86871 | 31779 ft | 518 kts | 65° |
| 2026-04-25 15:27 | 51.08745 | 11.92231 | 31119 ft | 513 kts | 65° |
| 2026-04-25 15:27 | 51.11172 | 12.02893 | 29715 ft | 525 kts | 65° |
| 2026-04-25 15:28 | 51.12438 | 12.08437 | 29002 ft | 536 kts | 65° |
| 2026-04-25 15:28 | 51.13690 | 12.14016 | 28288 ft | 535 kts | 66° |
| 2026-04-25 15:28 | 51.14934 | 12.19580 | 27588 ft | 532 kts | 66° |
| 2026-04-25 15:28 | 51.16180 | 12.25105 | 26884 ft | 528 kts | 66° |
| 2026-04-25 15:29 | 51.17420 | 12.30600 | 26190 ft | 526 kts | 66° |
| 2026-04-25 15:29 | 51.18640 | 12.36061 | 25501 ft | 521 kts | 66° |
| 2026-04-25 15:29 | 51.19844 | 12.41485 | 24818 ft | 517 kts | 66° |
| 2026-04-25 15:29 | 51.21042 | 12.46869 | 24152 ft | 513 kts | 66° |
| 2026-04-25 15:30 | 51.22232 | 12.52210 | 23443 ft | 510 kts | 67° |
| 2026-04-25 15:30 | 51.23406 | 12.57518 | 22751 ft | 505 kts | 67° |
| 2026-04-25 15:30 | 51.24566 | 12.62786 | 22090 ft | 501 kts | 67° |
| 2026-04-25 15:30 | 51.25716 | 12.68008 | 21430 ft | 497 kts | 67° |
| 2026-04-25 15:31 | 51.26856 | 12.73188 | 20771 ft | 492 kts | 67° |
| 2026-04-25 15:31 | 51.27983 | 12.78328 | 20129 ft | 488 kts | 67° |
| 2026-04-25 15:31 | 51.28721 | 12.81708 | 19704 ft | 486 kts | 67° |
| 2026-04-25 15:31 | 51.29828 | 12.86784 | 19066 ft | 482 kts | 67° |
| 2026-04-25 15:32 | 51.31276 | 12.93434 | 18209 ft | 477 kts | 67° |
| 2026-04-25 15:32 | 51.32009 | 12.96813 | 17765 ft | 473 kts | 67° |
| 2026-04-25 15:32 | 51.33434 | 13.03385 | 16944 ft | 474 kts | 67° |
| 2026-04-25 15:33 | 51.35559 | 13.13245 | 15701 ft | 465 kts | 67° |
| 2026-04-25 15:33 | 51.36605 | 13.18111 | 15090 ft | 460 kts | 67° |
| 2026-04-25 15:33 | 51.37305 | 13.21374 | 14682 ft | 458 kts | 68° |
| 2026-04-25 15:33 | 51.38665 | 13.27725 | 13888 ft | 453 kts | 68° |
| 2026-04-25 15:34 | 51.39350 | 13.30937 | 13451 ft | 450 kts | 68° |
| 2026-04-25 15:34 | 51.40351 | 13.35641 | 12856 ft | 444 kts | 68° |
| 2026-04-25 15:34 | 51.41342 | 13.40303 | 12278 ft | 440 kts | 68° |
| 2026-04-25 15:34 | 51.41993 | 13.43366 | 11886 ft | 437 kts | 68° |
| 2026-04-25 15:35 | 51.44243 | 13.54011 | 10558 ft | 426 kts | 68° |
| 2026-04-25 15:35 | 51.45187 | 13.58492 | 10000 ft | 422 kts | 68° |
| 2026-04-25 15:35 | 51.46108 | 13.62876 | 9401 ft | 419 kts | 68° |
| 2026-04-25 15:36 | 51.47828 | 13.71779 | 8274 ft | 417 kts | 78° |
| 2026-04-25 15:36 | 51.47670 | 13.76433 | 7738 ft | 418 kts | 102° |
| 2026-04-25 15:36 | 51.46692 | 13.80615 | 7327 ft | 384 kts | 114° |
| 2026-04-25 15:37 | 51.45542 | 13.84315 | 7009 ft | 357 kts | 117° |
| 2026-04-25 15:37 | 51.44419 | 13.87717 | 6689 ft | 335 kts | 118° |
| 2026-04-25 15:37 | 51.43347 | 13.90925 | 6394 ft | 334 kts | 118° |
| 2026-04-25 15:37 | 51.42248 | 13.94214 | 6075 ft | 333 kts | 118° |
| 2026-04-25 15:38 | 51.41152 | 13.97506 | 5752 ft | 336 kts | 118° |
| 2026-04-25 15:38 | 51.40063 | 14.00729 | 5430 ft | 327 kts | 121° |
| 2026-04-25 15:38 | 51.38488 | 14.03291 | 4953 ft | 321 kts | 151° |
| 2026-04-25 15:38 | 51.36438 | 14.04516 | 4550 ft | 309 kts | 175° |
| 2026-04-25 15:39 | 51.34545 | 14.04519 | 4148 ft | 241 kts | 197° |
| 2026-04-25 15:39 | 51.33110 | 14.03776 | 3691 ft | 198 kts | 214° |
| 2026-04-25 15:39 | 51.31959 | 14.02422 | 3254 ft | 219 kts | 227° |
| 2026-04-25 15:39 | 51.30810 | 14.00818 | 2953 ft | 216 kts | 226° |
| 2026-04-25 15:40 | 51.29701 | 13.99294 | 2974 ft | 209 kts | 227° |
| 2026-04-25 15:40 | 51.28951 | 13.98257 | 2970 ft | 212 kts | 226° |
| 2026-04-25 15:40 | 51.27468 | 13.96199 | 2978 ft | 214 kts | 226° |
| 2026-04-25 15:40 | 51.26335 | 13.94640 | 2964 ft | 215 kts | 226° |
| 2026-04-25 15:41 | 51.25215 | 13.93087 | 2974 ft | 213 kts | 226° |
| 2026-04-25 15:41 | 51.24091 | 13.91532 | 2977 ft | 214 kts | 226° |
| 2026-04-25 15:41 | 51.22973 | 13.89992 | 2965 ft | 207 kts | 226° |
| 2026-04-25 15:41 | 51.21959 | 13.88594 | 2730 ft | 173 kts | 227° |
| 2026-04-25 15:42 | 51.21142 | 13.87454 | 2464 ft | 140 kts | 227° |
| 2026-04-25 15:42 | 51.20457 | 13.86502 | 2317 ft | 125 kts | 229° |
| 2026-04-25 15:42 | 51.19797 | 13.85583 | 2172 ft | 127 kts | 229° |
| 2026-04-25 15:42 | 51.19132 | 13.84664 | 2014 ft | 126 kts | 227° |
| 2026-04-25 15:43 | 51.18470 | 13.83753 | 1845 ft | 125 kts | 228° |
| 2026-04-25 15:43 | 51.17815 | 13.82839 | 1669 ft | 125 kts | 228° |
| 2026-04-25 15:43 | 51.17148 | 13.81917 | 1487 ft | 128 kts | 225° |
| 2026-04-25 15:43 | 51.16474 | 13.80993 | 1263 ft | 127 kts | 229° |
| 2026-04-25 15:44 | 51.15809 | 13.80083 | 1154 ft | 131 kts | 226° |
| 2026-04-25 15:44 | 51.15098 | 13.79161 | 956 ft | 126 kts | 231° |
| 2026-04-25 15:44 | 51.14435 | 13.78210 | 799 ft | 132 kts | 227° |
| 2026-04-25 15:44 | 51.13757 | 13.77253 | 728 ft | 120 kts | 229° |
| 2026-04-25 15:45 | 51.13288 | 13.76614 | 743 ft | 49 kts | 221° |
| 2026-04-25 15:45 | 51.13057 | 13.76284 | 751 ft | 39 kts | 221° |
| 2026-04-25 15:45 | 51.12866 | 13.76018 | 755 ft | 29 kts | 223° |
| 2026-04-25 15:45 | 51.12778 | 13.75898 | 759 ft | 15 kts | 221° |
| 2026-04-25 15:46 | 51.12720 | 13.75837 | 757 ft | 6 kts | 182° |
| 2026-04-25 15:46 | 51.12656 | 13.75915 | 757 ft | 16 kts | 130° |
| 2026-04-25 15:46 | 51.12612 | 13.75994 | 756 ft | 9 kts | 131° |
| 2026-04-25 15:46 | 51.12584 | 13.76074 | 756 ft | 8 kts | 72° |
| 2026-04-25 15:47 | 51.12638 | 13.76178 | 755 ft | 27 kts | 43° |
| 2026-04-25 15:47 | 51.12791 | 13.76389 | 750 ft | 30 kts | 40° |
| 2026-04-25 15:47 | 51.12927 | 13.76576 | 747 ft | 15 kts | 42° |
| 2026-04-25 15:47 | 51.12940 | 13.76639 | 749 ft | 8 kts | 135° |
| 2026-04-25 15:48 | 51.12929 | 13.76664 | 748 ft | 0 kts | 126° |